createdAt,value
2019-04-12T00:00:19.834Z,3.92
2019-04-12T00:01:21.216Z,3.89
2019-04-12T00:02:22.598Z,3.88
2019-04-12T00:03:23.984Z,3.90
2019-04-12T00:04:25.370Z,3.84
2019-04-12T00:05:26.748Z,3.82
2019-04-12T00:06:28.138Z,3.88
2019-04-12T00:07:32.520Z,3.86
2019-04-12T00:08:31.477Z,3.77
2019-04-12T00:09:32.231Z,3.81
2019-04-12T00:10:33.616Z,3.82
2019-04-12T00:11:35.004Z,3.75
2019-04-12T00:12:36.385Z,3.81
2019-04-12T00:13:37.762Z,3.75
2019-04-12T00:14:41.551Z,3.75
2019-04-12T00:15:40.815Z,3.81
2019-04-12T00:16:43.929Z,3.77
2019-04-12T00:17:44.212Z,3.75
2019-04-12T00:18:45.229Z,3.72
2019-04-12T00:19:45.920Z,3.74
2019-04-12T00:20:47.304Z,3.74
2019-04-12T00:21:48.692Z,3.70
2019-04-12T00:22:50.087Z,3.60
2019-04-12T00:23:51.457Z,3.63
2019-04-12T00:24:52.831Z,3.56
2019-04-12T00:25:54.200Z,3.52
2019-04-12T00:26:55.576Z,3.49
2019-04-12T00:27:56.956Z,3.57
2019-04-12T00:28:58.328Z,3.63
2019-04-12T00:29:59.724Z,3.60
2019-04-12T00:31:01.104Z,3.57
2019-04-12T00:32:02.481Z,3.54
2019-04-12T00:33:03.857Z,3.54
2019-04-12T00:34:05.231Z,3.57
2019-04-12T00:35:06.607Z,3.49
2019-04-12T00:36:07.996Z,3.49
2019-04-12T00:37:09.371Z,3.46
2019-04-12T00:38:10.746Z,3.52
2019-04-12T00:39:12.132Z,3.50
2019-04-12T00:40:13.506Z,3.49
2019-04-12T00:41:14.879Z,3.62
2019-04-12T00:42:16.256Z,3.46
2019-04-12T00:43:17.629Z,3.52
2019-04-12T00:44:19.008Z,3.53
2019-04-12T00:45:20.398Z,3.45
2019-04-12T00:46:21.776Z,3.46
2019-04-12T00:47:23.160Z,3.56
2019-04-12T00:48:24.536Z,3.59
2019-04-12T00:49:25.940Z,3.54
2019-04-12T00:50:27.319Z,3.54
2019-04-12T00:51:28.697Z,3.50
2019-04-12T00:52:30.075Z,3.46
2019-04-12T00:53:31.444Z,3.62
2019-04-12T00:54:32.821Z,3.46
2019-04-12T00:55:34.196Z,3.46
2019-04-12T00:56:35.575Z,3.49
2019-04-12T00:57:36.957Z,3.46
2019-04-12T00:58:38.325Z,3.46
2019-04-12T00:59:39.710Z,3.46
2019-04-12T01:00:41.101Z,3.45
2019-04-12T01:01:42.487Z,3.46
2019-04-12T01:02:46.032Z,3.49
2019-04-12T01:03:46.328Z,3.53
2019-04-12T01:04:46.663Z,3.53
2019-04-12T01:05:48.754Z,3.50
2019-04-12T01:06:49.217Z,3.46
2019-04-12T01:07:51.184Z,3.52
2019-04-12T01:08:52.642Z,3.42
2019-04-12T01:09:53.957Z,3.45
2019-04-12T01:10:54.624Z,3.44
2019-04-12T01:11:56.156Z,3.44
2019-04-12T01:12:57.868Z,3.45
2019-04-12T01:13:58.689Z,3.44
2019-04-12T01:15:00.070Z,3.39
2019-04-12T01:16:01.440Z,3.35
2019-04-12T01:17:02.814Z,3.31
2019-04-12T01:18:04.202Z,3.33
2019-04-12T01:19:05.585Z,3.35
2019-04-12T01:20:06.956Z,3.28
2019-04-12T01:21:09.230Z,3.37
2019-04-12T01:22:10.616Z,3.45
2019-04-12T01:23:12.005Z,3.34
2019-04-12T01:24:13.389Z,3.31
2019-04-12T01:25:14.787Z,3.45
2019-04-12T01:26:16.179Z,3.31
2019-04-12T01:27:17.557Z,3.35
2019-04-12T01:28:18.909Z,3.37
2019-04-12T01:29:20.289Z,3.34
2019-04-12T01:30:21.669Z,3.30
2019-04-12T01:31:23.057Z,3.30
2019-04-12T01:32:24.431Z,3.34
2019-04-12T01:33:25.810Z,3.30
2019-04-12T01:34:27.193Z,3.34
2019-04-12T01:35:28.577Z,3.22
2019-04-12T01:36:29.949Z,3.31
2019-04-12T01:37:31.323Z,3.20
2019-04-12T01:38:32.704Z,3.34
2019-04-12T01:39:34.086Z,3.22
2019-04-12T01:40:35.458Z,3.22
2019-04-12T01:41:36.830Z,3.25
2019-04-12T01:42:38.208Z,3.30
2019-04-12T01:43:39.580Z,3.19
2019-04-12T01:44:40.960Z,3.28
2019-04-12T01:45:42.344Z,3.25
2019-04-12T01:46:43.725Z,3.30
2019-04-12T01:47:45.099Z,3.23
2019-04-12T01:48:46.466Z,3.34
2019-04-12T01:49:47.838Z,3.16
2019-04-12T01:50:49.229Z,3.22
2019-04-12T01:51:50.598Z,3.19
2019-04-12T01:52:51.978Z,3.30
2019-04-12T01:53:53.358Z,3.30
2019-04-12T01:54:54.734Z,3.23
2019-04-12T01:55:56.113Z,3.26
2019-04-12T01:56:57.487Z,3.30
2019-04-12T01:57:58.863Z,3.26
2019-04-12T01:59:00.239Z,3.22
2019-04-12T02:00:01.621Z,3.22
2019-04-12T02:01:03.007Z,3.33
2019-04-12T02:02:04.377Z,3.23
2019-04-12T02:03:05.759Z,3.28
2019-04-12T02:04:07.137Z,3.19
2019-04-12T02:05:08.513Z,3.16
2019-04-12T02:06:09.893Z,3.33
2019-04-12T02:07:11.274Z,3.37
2019-04-12T02:08:12.643Z,3.33
2019-04-12T02:09:14.021Z,3.37
2019-04-12T02:10:15.398Z,3.30
2019-04-12T02:11:16.774Z,3.34
2019-04-12T02:12:18.151Z,3.26
2019-04-12T02:13:19.531Z,3.33
2019-04-12T02:14:20.907Z,3.42
2019-04-12T02:15:22.286Z,3.35
2019-04-12T02:16:23.672Z,3.25
2019-04-12T02:17:25.048Z,3.28
2019-04-12T02:18:26.426Z,3.19
2019-04-12T02:19:27.810Z,3.16
2019-04-12T02:20:29.198Z,3.30
2019-04-12T02:21:30.581Z,3.30
2019-04-12T02:22:31.950Z,3.20
2019-04-12T02:23:33.329Z,3.22
2019-04-12T02:24:35.691Z,3.22
2019-04-12T02:25:37.072Z,3.22
2019-04-12T02:26:38.441Z,3.20
2019-04-12T02:27:39.819Z,3.19
2019-04-12T02:28:41.190Z,3.23
2019-04-12T02:29:42.570Z,3.20
2019-04-12T02:30:43.940Z,3.20
2019-04-12T02:31:45.336Z,3.19
2019-04-12T02:32:46.800Z,3.17
2019-04-12T02:33:48.100Z,3.22
2019-04-12T02:34:49.482Z,3.20
2019-04-12T02:35:50.866Z,3.08
2019-04-12T02:36:52.252Z,3.12
2019-04-12T02:37:53.630Z,3.25
2019-04-12T02:38:55.039Z,3.17
2019-04-12T02:39:56.405Z,3.23
2019-04-12T02:40:57.803Z,3.19
2019-04-12T02:41:59.192Z,3.19
2019-04-12T02:43:00.571Z,3.19
2019-04-12T02:44:01.959Z,3.19
2019-04-12T02:45:03.353Z,3.22
2019-04-12T02:46:04.755Z,3.22
2019-04-12T02:47:06.152Z,3.19
2019-04-12T02:48:07.525Z,3.30
2019-04-12T02:49:08.914Z,3.20
2019-04-12T02:50:10.310Z,3.28
2019-04-12T02:51:11.694Z,3.17
2019-04-12T02:52:13.093Z,3.20
2019-04-12T02:53:14.471Z,3.20
2019-04-12T02:54:15.902Z,3.22
2019-04-12T02:55:17.249Z,3.20
2019-04-12T02:56:18.663Z,3.20
2019-04-12T02:57:20.047Z,3.20
2019-04-12T02:58:21.429Z,3.20
2019-04-12T02:59:22.834Z,3.26
2019-04-12T03:00:24.204Z,3.16
2019-04-12T03:01:25.605Z,3.25
2019-04-12T03:02:26.995Z,3.28
2019-04-12T03:03:28.379Z,3.34
2019-04-12T03:04:29.756Z,3.19
2019-04-12T03:05:31.139Z,3.23
2019-04-12T03:06:32.522Z,3.23
2019-04-12T03:07:33.903Z,3.30
2019-04-12T03:08:35.286Z,3.26
2019-04-12T03:09:36.669Z,3.23
2019-04-12T03:10:38.046Z,3.22
2019-04-12T03:11:39.428Z,3.16
2019-04-12T03:12:40.802Z,3.22
2019-04-12T03:13:42.189Z,3.22
2019-04-12T03:14:43.579Z,3.23
2019-04-12T03:15:44.964Z,3.25
2019-04-12T03:16:46.389Z,3.25
2019-04-12T03:17:47.761Z,3.25
2019-04-12T03:18:49.142Z,3.25
2019-04-12T03:19:50.524Z,3.23
2019-04-12T03:20:51.934Z,3.10
2019-04-12T03:21:53.300Z,3.17
2019-04-12T03:22:54.689Z,3.19
2019-04-12T03:23:56.103Z,3.17
2019-04-12T03:24:57.479Z,3.16
2019-04-12T03:25:58.863Z,3.17
2019-04-12T03:27:00.252Z,3.20
2019-04-12T03:28:01.646Z,3.16
2019-04-12T03:29:03.087Z,3.17
2019-04-12T03:30:04.378Z,3.15
2019-04-12T03:31:05.778Z,3.17
2019-04-12T03:32:07.159Z,3.12
2019-04-12T03:33:08.541Z,3.13
2019-04-12T03:34:09.924Z,3.15
2019-04-12T03:35:11.315Z,3.16
2019-04-12T03:36:12.697Z,3.17
2019-04-12T03:37:14.086Z,3.17
2019-04-12T03:38:15.485Z,3.22
2019-04-12T03:39:16.872Z,3.23
2019-04-12T03:40:18.270Z,3.25
2019-04-12T03:41:19.640Z,3.25
2019-04-12T03:42:21.023Z,3.15
2019-04-12T03:43:22.418Z,3.23
2019-04-12T03:44:23.797Z,3.26
2019-04-12T03:45:25.177Z,3.10
2019-04-12T03:46:26.563Z,3.07
2019-04-12T03:47:27.949Z,3.20
2019-04-12T03:48:29.342Z,3.15
2019-04-12T03:49:30.738Z,3.16
2019-04-12T03:50:32.106Z,3.17
2019-04-12T03:51:33.490Z,3.15
2019-04-12T03:52:34.876Z,3.13
2019-04-12T03:53:36.264Z,3.19
2019-04-12T03:54:37.640Z,3.10
2019-04-12T03:55:39.025Z,3.12
2019-04-12T03:56:40.415Z,3.12
2019-04-12T03:57:41.809Z,3.12
2019-04-12T03:58:43.178Z,3.13
2019-04-12T03:59:44.561Z,3.08
2019-04-12T04:00:45.990Z,3.12
2019-04-12T04:01:47.376Z,3.26
2019-04-12T04:02:48.768Z,3.25
2019-04-12T04:03:50.148Z,3.22
2019-04-12T04:04:51.527Z,3.25
2019-04-12T04:05:52.915Z,3.17
2019-04-12T04:06:54.331Z,3.15
2019-04-12T04:07:55.743Z,3.15
2019-04-12T04:08:57.142Z,3.20
2019-04-12T04:09:58.593Z,3.12
2019-04-12T04:10:59.876Z,3.16
2019-04-12T04:12:01.266Z,3.15
2019-04-12T04:13:02.664Z,3.13
2019-04-12T04:14:04.040Z,3.13
2019-04-12T04:15:05.467Z,3.13
2019-04-12T04:16:06.860Z,3.08
2019-04-12T04:17:08.263Z,3.13
2019-04-12T04:18:09.657Z,3.15
2019-04-12T04:19:11.082Z,3.12
2019-04-12T04:20:12.472Z,3.15
2019-04-12T04:21:13.909Z,3.08
2019-04-12T04:22:15.321Z,3.08
2019-04-12T04:23:16.777Z,3.02
2019-04-12T04:24:18.189Z,3.07
2019-04-12T04:25:19.620Z,3.13
2019-04-12T04:26:23.520Z,3.13
2019-04-12T04:27:22.472Z,3.12
2019-04-12T04:28:23.880Z,3.05
2019-04-12T04:29:25.364Z,3.13
2019-04-12T04:30:26.769Z,3.08
2019-04-12T04:31:28.172Z,3.12
2019-04-12T04:32:29.582Z,3.12
2019-04-12T04:33:30.974Z,3.13
2019-04-12T04:34:32.381Z,3.17
2019-04-12T04:35:33.756Z,3.15
2019-04-12T04:36:35.163Z,3.13
2019-04-12T04:37:36.574Z,3.15
2019-04-12T04:38:37.964Z,3.20
2019-04-12T04:39:39.381Z,3.08
2019-04-12T04:40:40.775Z,3.22
2019-04-12T04:41:42.173Z,3.07
2019-04-12T04:42:43.583Z,3.08
2019-04-12T04:43:44.963Z,3.12
2019-04-12T04:44:46.355Z,3.23
2019-04-12T04:45:47.759Z,3.19
2019-04-12T04:46:49.157Z,3.30
2019-04-12T04:47:51.305Z,3.28
2019-04-12T04:48:52.748Z,3.22
2019-04-12T04:49:54.121Z,3.16
2019-04-12T04:50:55.521Z,3.22
2019-04-12T04:51:56.898Z,3.31
2019-04-12T04:52:58.297Z,3.23
2019-04-12T04:53:59.691Z,3.30
2019-04-12T04:55:01.094Z,3.25
2019-04-12T04:56:02.471Z,3.23
2019-04-12T04:57:03.869Z,3.30
2019-04-12T04:58:05.263Z,3.31
2019-04-12T04:59:06.660Z,3.34
2019-04-12T05:00:08.076Z,3.16
2019-04-12T05:01:09.480Z,3.28
2019-04-12T05:02:10.879Z,3.20
2019-04-12T05:03:12.262Z,3.26
2019-04-12T05:04:14.297Z,3.30
2019-04-12T05:05:15.682Z,3.31
2019-04-12T05:06:17.074Z,3.28
2019-04-12T05:07:18.468Z,3.34
2019-04-12T05:08:19.872Z,3.46
2019-04-12T05:09:21.264Z,3.34
2019-04-12T05:10:22.671Z,3.31
2019-04-12T05:11:24.048Z,3.30
2019-04-12T05:12:25.439Z,3.39
2019-04-12T05:13:26.818Z,3.44
2019-04-12T05:14:28.223Z,3.41
2019-04-12T05:15:29.611Z,3.49
2019-04-12T05:16:31.009Z,3.49
2019-04-12T05:17:32.403Z,3.54
2019-04-12T05:18:33.794Z,3.60
2019-04-12T05:19:35.176Z,3.71
2019-04-12T05:20:36.579Z,3.68
2019-04-12T05:21:37.967Z,3.63
2019-04-12T05:22:39.352Z,3.64
2019-04-12T05:23:40.751Z,3.70
2019-04-12T05:24:42.138Z,3.63
2019-04-12T05:25:43.518Z,3.60
2019-04-12T05:26:45.752Z,3.63
2019-04-12T05:27:46.254Z,3.67
2019-04-12T05:28:47.656Z,3.60
2019-04-12T05:29:49.046Z,3.68
2019-04-12T05:30:50.441Z,3.77
2019-04-12T05:31:51.828Z,3.78
2019-04-12T05:32:53.223Z,3.88
2019-04-12T05:33:54.606Z,3.88
2019-04-12T05:34:55.994Z,3.84
2019-04-12T05:35:57.392Z,3.88
2019-04-12T05:37:09.351Z,3.81
2019-04-12T05:38:00.135Z,3.84
2019-04-12T05:39:01.527Z,3.84
2019-04-12T05:40:02.922Z,3.96
2019-04-12T05:41:04.370Z,3.81
2019-04-12T05:42:05.751Z,3.86
2019-04-12T05:43:07.171Z,3.89
2019-04-12T05:44:08.639Z,3.88
2019-04-12T05:45:10.015Z,3.90
2019-04-12T05:46:11.407Z,3.81
2019-04-12T05:47:12.804Z,3.93
2019-04-12T05:48:14.197Z,3.84
2019-04-12T05:49:15.603Z,3.89
2019-04-12T05:50:17.047Z,3.92
2019-04-12T05:51:18.477Z,3.99
2019-04-12T05:52:20.684Z,3.90
2019-04-12T05:53:21.272Z,3.98
2019-04-12T05:54:22.686Z,4.02
2019-04-12T05:55:24.068Z,3.95
2019-04-12T05:56:25.490Z,4.06
2019-04-12T05:57:26.904Z,4.02
2019-04-12T05:58:28.388Z,4.04
2019-04-12T05:59:29.830Z,4.10
2019-04-12T06:00:31.257Z,4.04
2019-04-12T06:01:32.647Z,4.04
2019-04-12T06:02:34.076Z,4.10
2019-04-12T06:03:35.505Z,4.13
2019-04-12T06:04:36.929Z,4.28
2019-04-12T06:05:38.412Z,4.28
2019-04-12T06:06:39.887Z,4.44
2019-04-12T06:07:43.012Z,4.59
2019-04-12T06:08:44.454Z,4.90
2019-04-12T06:09:45.934Z,5.11
2019-04-12T06:10:47.390Z,5.41
2019-04-12T06:11:48.836Z,5.83
2019-04-12T06:12:50.255Z,6.02
2019-04-12T06:13:51.670Z,6.36
2019-04-12T06:14:53.104Z,6.45
2019-04-12T06:15:54.525Z,6.54
2019-04-12T06:17:01.068Z,6.54
2019-04-12T06:17:57.364Z,6.58
2019-04-12T06:18:58.695Z,6.79
2019-04-12T06:20:00.134Z,7.01
2019-04-12T06:21:01.547Z,7.41
2019-04-12T06:22:02.960Z,7.67
2019-04-12T06:23:04.380Z,7.95
2019-04-12T06:24:06.474Z,8.60
2019-04-12T06:25:07.884Z,9.06
2019-04-12T06:26:09.308Z,9.80
2019-04-12T06:27:10.789Z,10.62
2019-04-12T06:28:12.086Z,11.66
2019-04-12T06:29:13.490Z,12.79
2019-04-12T06:30:14.948Z,13.84
2019-04-12T06:31:16.348Z,14.87
2019-04-12T06:32:17.747Z,15.40
2019-04-12T06:33:19.191Z,15.92
2019-04-12T06:34:20.666Z,16.82
2019-04-12T06:35:22.084Z,16.96
2019-04-12T06:36:23.499Z,16.77
2019-04-12T06:37:24.922Z,16.27
2019-04-12T06:38:26.321Z,15.80
2019-04-12T06:39:27.739Z,15.44
2019-04-12T06:40:29.161Z,15.12
2019-04-12T06:41:30.579Z,14.66
2019-04-12T06:42:32.028Z,14.36
2019-04-12T06:43:33.439Z,13.94
2019-04-12T06:44:34.903Z,13.90
2019-04-12T06:45:36.380Z,14.01
2019-04-12T06:46:37.791Z,13.94
2019-04-12T06:47:39.205Z,13.55
2019-04-12T06:48:40.615Z,13.14
2019-04-12T06:49:42.035Z,12.80
2019-04-12T06:50:43.440Z,12.33
2019-04-12T06:51:44.831Z,11.53
2019-04-12T06:52:46.255Z,10.98
2019-04-12T06:53:47.669Z,10.49
2019-04-12T06:54:49.103Z,9.95
2019-04-12T06:55:51.096Z,9.59
2019-04-12T06:56:52.506Z,9.12
2019-04-12T06:57:53.928Z,8.71
2019-04-12T06:58:55.319Z,8.42
2019-04-12T06:59:56.739Z,8.00
2019-04-12T07:00:58.140Z,7.79
2019-04-12T07:01:59.555Z,7.71
2019-04-12T07:03:00.975Z,7.50
2019-04-12T07:04:02.371Z,7.36
2019-04-12T07:05:03.769Z,7.19
2019-04-12T07:06:05.190Z,7.14
2019-04-12T07:07:06.690Z,7.05
2019-04-12T07:08:08.131Z,6.91
2019-04-12T07:09:09.408Z,6.94
2019-04-12T07:10:10.792Z,6.97
2019-04-12T07:11:12.191Z,7.01
2019-04-12T07:12:13.587Z,7.08
2019-04-12T07:13:15.011Z,7.21
2019-04-12T07:14:16.393Z,7.11
2019-04-12T07:15:17.790Z,7.16
2019-04-12T07:16:19.188Z,7.08
2019-04-12T07:17:20.580Z,7.19
2019-04-12T07:18:21.985Z,7.15
2019-04-12T07:19:23.381Z,7.16
2019-04-12T07:20:24.768Z,7.18
2019-04-12T07:21:26.164Z,7.19
2019-04-12T07:22:27.563Z,7.24
2019-04-12T07:23:28.959Z,7.52
2019-04-12T07:24:30.356Z,8.00
2019-04-12T07:25:31.749Z,8.85
2019-04-12T07:26:33.138Z,9.68
2019-04-12T07:27:35.014Z,10.34
2019-04-12T07:28:35.892Z,11.09
2019-04-12T07:29:37.286Z,11.51
2019-04-12T07:30:38.694Z,12.25
2019-04-12T07:31:40.094Z,12.80
2019-04-12T07:32:41.494Z,13.28
2019-04-12T07:33:42.892Z,13.68
2019-04-12T07:34:44.290Z,14.06
2019-04-12T07:35:45.719Z,14.48
2019-04-12T07:36:47.132Z,14.95
2019-04-12T07:37:48.534Z,15.04
2019-04-12T07:38:49.930Z,14.46
2019-04-12T07:39:51.334Z,14.08
2019-04-12T07:40:52.747Z,13.43
2019-04-12T07:41:54.145Z,13.36
2019-04-12T07:42:55.551Z,12.79
2019-04-12T07:43:56.971Z,12.12
2019-04-12T07:44:58.381Z,11.75
2019-04-12T07:45:59.786Z,11.36
2019-04-12T07:47:01.189Z,11.20
2019-04-12T07:48:02.626Z,11.08
2019-04-12T07:49:04.026Z,11.27
2019-04-12T07:50:06.012Z,11.53
2019-04-12T07:51:07.420Z,11.36
2019-04-12T07:52:08.830Z,10.88
2019-04-12T07:53:10.243Z,10.69
2019-04-12T07:54:11.643Z,10.60
2019-04-12T07:55:13.041Z,10.54
2019-04-12T07:56:14.444Z,10.55
2019-04-12T07:57:15.828Z,10.49
2019-04-12T07:58:17.231Z,10.25
2019-04-12T07:59:19.262Z,9.98
2019-04-12T08:00:20.660Z,9.80
2019-04-12T08:01:22.070Z,9.52
2019-04-12T08:02:23.461Z,9.44
2019-04-12T08:03:24.868Z,9.59
2019-04-12T08:04:26.267Z,9.67
2019-04-12T08:05:27.666Z,9.60
2019-04-12T08:06:29.075Z,9.63
2019-04-12T08:07:30.463Z,9.55
2019-04-12T08:08:31.867Z,9.56
2019-04-12T08:09:33.251Z,9.49
2019-04-12T08:10:34.655Z,9.77
2019-04-12T08:11:36.044Z,10.91
2019-04-12T08:12:37.453Z,12.62
2019-04-12T08:13:38.843Z,13.65
2019-04-12T08:14:40.239Z,14.24
2019-04-12T08:15:41.636Z,15.22
2019-04-12T08:16:43.049Z,15.35
2019-04-12T08:17:44.452Z,15.67
2019-04-12T08:18:45.894Z,15.38
2019-04-12T08:19:48.162Z,14.66
2019-04-12T08:20:48.682Z,14.09
2019-04-12T08:21:50.085Z,14.19
2019-04-12T08:22:51.480Z,15.34
2019-04-12T08:23:52.889Z,17.27
2019-04-12T08:24:54.292Z,19.07
2019-04-12T08:25:55.720Z,20.69
2019-04-12T08:26:57.103Z,22.17
2019-04-12T08:27:58.935Z,23.19
2019-04-12T08:28:59.890Z,23.57
2019-04-12T08:30:01.293Z,23.49
2019-04-12T08:31:03.259Z,23.44
2019-04-12T08:32:04.674Z,22.69
2019-04-12T08:33:06.100Z,22.46
2019-04-12T08:34:07.506Z,21.93
2019-04-12T08:35:11.387Z,21.59
2019-04-12T08:36:10.329Z,21.18
2019-04-12T08:37:11.749Z,21.91
2019-04-12T08:38:13.163Z,22.69
2019-04-12T08:39:14.573Z,22.89
2019-04-12T08:40:15.999Z,22.64
2019-04-12T08:41:17.427Z,22.97
2019-04-12T08:42:18.862Z,24.00
2019-04-12T08:43:20.290Z,23.56
2019-04-12T08:44:21.708Z,23.41
2019-04-12T08:45:23.115Z,23.52
2019-04-12T08:46:25.448Z,21.71
2019-04-12T08:47:26.919Z,20.00
2019-04-12T08:48:28.362Z,18.84
2019-04-12T08:49:29.853Z,18.66
2019-04-12T08:50:31.265Z,18.41
2019-04-12T08:51:32.659Z,18.36
2019-04-12T08:52:34.086Z,17.87
2019-04-12T08:53:35.523Z,17.28
2019-04-12T08:54:36.934Z,17.38
2019-04-12T08:55:38.346Z,17.83
2019-04-12T08:56:39.793Z,18.21
2019-04-12T08:57:41.170Z,18.91
2019-04-12T08:58:42.585Z,20.30
2019-04-12T08:59:44.026Z,21.21
2019-04-12T09:00:45.490Z,22.38
2019-04-12T09:01:46.860Z,23.63
2019-04-12T09:02:58.784Z,24.33
2019-04-12T09:03:52.596Z,23.94
2019-04-12T09:04:54.053Z,23.11
2019-04-12T09:05:55.491Z,22.19
2019-04-12T09:06:56.948Z,21.19
2019-04-12T09:07:58.420Z,19.53
2019-04-12T09:08:59.854Z,18.56
2019-04-12T09:10:01.462Z,17.73
2019-04-12T09:11:02.668Z,16.99
2019-04-12T09:12:04.095Z,16.55
2019-04-12T09:13:05.501Z,15.93
2019-04-12T09:14:06.960Z,15.20
2019-04-12T09:15:08.447Z,14.63
2019-04-12T09:16:09.846Z,13.91
2019-04-12T09:17:11.350Z,13.35
2019-04-12T09:18:12.764Z,12.79
2019-04-12T09:19:14.223Z,12.46
2019-04-12T09:20:15.737Z,12.12
2019-04-12T09:21:17.165Z,11.93
2019-04-12T09:22:18.635Z,11.77
2019-04-12T09:23:19.970Z,11.27
2019-04-12T09:24:21.626Z,11.17
2019-04-12T09:25:22.946Z,10.90
2019-04-12T09:26:24.258Z,10.58
2019-04-12T09:27:25.741Z,10.29
2019-04-12T09:28:27.212Z,10.16
2019-04-12T09:29:28.451Z,9.95
2019-04-12T09:30:30.007Z,9.81
2019-04-12T09:31:31.378Z,9.83
2019-04-12T09:32:32.911Z,9.91
2019-04-12T09:33:34.340Z,9.89
2019-04-12T09:34:36.308Z,9.75
2019-04-12T09:35:37.749Z,9.78
2019-04-12T09:36:39.176Z,9.85
2019-04-12T09:37:40.579Z,9.71
2019-04-12T09:38:42.052Z,9.50
2019-04-12T09:39:43.468Z,9.52
2019-04-12T09:40:44.940Z,9.49
2019-04-12T09:41:46.375Z,9.56
2019-04-12T09:42:47.815Z,9.53
2019-04-12T09:43:49.260Z,9.40
2019-04-12T09:44:50.650Z,9.35
2019-04-12T09:45:52.050Z,9.42
2019-04-12T09:46:53.464Z,9.41
2019-04-12T09:47:54.896Z,9.35
2019-04-12T09:48:56.306Z,9.38
2019-04-12T09:49:57.700Z,9.34
2019-04-12T09:50:59.108Z,9.12
2019-04-12T09:52:00.506Z,8.98
2019-04-12T09:53:01.944Z,8.98
2019-04-12T09:54:03.344Z,9.04
2019-04-12T09:55:04.765Z,9.15
2019-04-12T09:56:06.160Z,9.23
2019-04-12T09:57:07.569Z,9.30
2019-04-12T09:58:08.971Z,9.27
2019-04-12T09:59:10.413Z,9.23
2019-04-12T10:00:11.842Z,9.01
2019-04-12T10:01:13.236Z,8.91
2019-04-12T10:02:14.734Z,8.68
2019-04-12T10:03:16.094Z,8.54
2019-04-12T10:04:17.496Z,8.36
2019-04-12T10:05:18.893Z,8.27
2019-04-12T10:06:20.283Z,8.10
2019-04-12T10:07:21.690Z,8.07
2019-04-12T10:08:23.074Z,8.14
2019-04-12T10:09:27.959Z,8.13
2019-04-12T10:10:25.837Z,8.12
2019-04-12T10:11:27.230Z,7.95
2019-04-12T10:12:28.628Z,7.96
2019-04-12T10:13:30.038Z,7.84
2019-04-12T10:14:31.438Z,7.63
2019-04-12T10:15:32.780Z,7.51
2019-04-12T10:16:34.183Z,7.41
2019-04-12T10:17:35.581Z,7.45
2019-04-12T10:18:36.970Z,7.39
2019-04-12T10:19:38.362Z,7.42
2019-04-12T10:20:39.779Z,7.39
2019-04-12T10:21:41.165Z,7.36
2019-04-12T10:22:42.551Z,7.27
2019-04-12T10:23:43.975Z,7.37
2019-04-12T10:24:45.369Z,7.33
2019-04-12T10:25:46.767Z,7.33
2019-04-12T10:26:48.150Z,7.27
2019-04-12T10:27:49.537Z,7.24
2019-04-12T10:28:51.096Z,7.21
2019-04-12T10:29:53.103Z,7.08
2019-04-12T10:30:54.502Z,7.07
2019-04-12T10:31:55.891Z,6.96
2019-04-12T10:32:57.294Z,7.05
2019-04-12T10:33:58.704Z,6.94
2019-04-12T10:35:01.284Z,6.79
2019-04-12T10:36:01.460Z,6.69
2019-04-12T10:37:02.852Z,6.54
2019-04-12T10:38:04.250Z,6.40
2019-04-12T10:39:05.644Z,6.35
2019-04-12T10:40:07.060Z,6.28
2019-04-12T10:41:08.465Z,6.14
2019-04-12T10:42:09.882Z,6.17
2019-04-12T10:43:11.275Z,6.16
2019-04-12T10:44:12.676Z,6.03
2019-04-12T10:45:14.108Z,6.01
2019-04-12T10:46:15.517Z,6.06
2019-04-12T10:47:16.950Z,6.08
2019-04-12T10:48:18.416Z,6.32
2019-04-12T10:49:19.814Z,6.35
2019-04-12T10:50:21.208Z,6.43
2019-04-12T10:51:22.607Z,6.45
2019-04-12T10:52:24.011Z,6.51
2019-04-12T10:53:25.410Z,6.60
2019-04-12T10:54:26.847Z,6.87
2019-04-12T10:55:28.240Z,6.93
2019-04-12T10:56:29.647Z,7.04
2019-04-12T10:57:31.109Z,7.29
2019-04-12T10:58:32.453Z,7.41
2019-04-12T10:59:33.851Z,7.48
2019-04-12T11:00:35.268Z,7.71
2019-04-12T11:01:36.674Z,7.86
2019-04-12T11:02:38.083Z,8.02
2019-04-12T11:03:39.479Z,8.20
2019-04-12T11:04:40.872Z,8.22
2019-04-12T11:05:42.284Z,8.13
2019-04-12T11:06:43.679Z,8.28
2019-04-12T11:07:45.070Z,8.25
2019-04-12T11:08:46.466Z,8.34
2019-04-12T11:09:47.878Z,8.34
2019-04-12T11:10:49.284Z,8.27
2019-04-12T11:11:50.662Z,8.24
2019-04-12T11:12:52.072Z,8.13
2019-04-12T11:13:53.495Z,8.12
2019-04-12T11:14:55.203Z,8.02
2019-04-12T11:15:56.271Z,7.99
2019-04-12T11:16:57.700Z,8.03
2019-04-12T11:17:59.090Z,8.00
2019-04-12T11:19:00.483Z,8.00
2019-04-12T11:20:01.921Z,7.96
2019-04-12T11:21:03.340Z,7.89
2019-04-12T11:22:04.728Z,7.73
2019-04-12T11:23:06.129Z,7.66
2019-04-12T11:24:07.591Z,7.73
2019-04-12T11:25:08.993Z,7.79
2019-04-12T11:26:10.389Z,7.79
2019-04-12T11:27:11.803Z,7.99
2019-04-12T11:28:13.229Z,8.03
2019-04-12T11:29:17.269Z,8.00
2019-04-12T11:30:15.976Z,8.12
2019-04-12T11:31:17.412Z,8.14
2019-04-12T11:32:18.806Z,8.10
2019-04-12T11:33:20.205Z,8.10
2019-04-12T11:34:21.606Z,7.95
2019-04-12T11:35:22.994Z,7.96
2019-04-12T11:36:24.405Z,7.79
2019-04-12T11:37:25.818Z,7.85
2019-04-12T11:38:27.230Z,8.02
2019-04-12T11:39:28.626Z,7.85
2019-04-12T11:40:30.026Z,7.85
2019-04-12T11:41:31.414Z,7.92
2019-04-12T11:42:32.834Z,8.09
2019-04-12T11:43:34.235Z,8.03
2019-04-12T11:44:35.627Z,8.20
2019-04-12T11:45:37.033Z,8.37
2019-04-12T11:46:38.437Z,8.46
2019-04-12T11:47:39.834Z,8.60
2019-04-12T11:48:41.236Z,8.49
2019-04-12T11:49:42.780Z,8.40
2019-04-12T11:50:44.254Z,8.58
2019-04-12T11:51:45.606Z,8.55
2019-04-12T11:52:47.001Z,8.42
2019-04-12T11:53:48.411Z,8.32
2019-04-12T11:54:49.802Z,8.29
2019-04-12T11:55:51.208Z,8.32
2019-04-12T11:56:52.603Z,8.34
2019-04-12T11:57:54.001Z,8.22
2019-04-12T11:58:55.425Z,7.95
2019-04-12T11:59:56.828Z,7.99
2019-04-12T12:00:58.229Z,7.92
2019-04-12T12:01:59.622Z,7.95
2019-04-12T12:03:01.009Z,8.02
2019-04-12T12:04:02.411Z,8.03
2019-04-12T12:05:03.808Z,8.07
2019-04-12T12:06:05.196Z,7.95
2019-04-12T12:07:06.592Z,7.88
2019-04-12T12:08:07.993Z,7.86
2019-04-12T12:09:09.382Z,7.76
2019-04-12T12:10:10.787Z,7.71
2019-04-12T12:11:12.211Z,7.82
2019-04-12T12:12:13.606Z,7.96
2019-04-12T12:13:15.006Z,7.96
2019-04-12T12:14:16.394Z,8.03
2019-04-12T12:15:17.805Z,7.99
2019-04-12T12:16:19.190Z,8.17
2019-04-12T12:17:20.579Z,8.14
2019-04-12T12:18:21.975Z,8.09
2019-04-12T12:19:23.374Z,8.24
2019-04-12T12:20:24.777Z,8.25
2019-04-12T12:21:26.181Z,8.31
2019-04-12T12:22:27.568Z,8.46
2019-04-12T12:23:28.969Z,8.32
2019-04-12T12:24:30.409Z,8.32
2019-04-12T12:25:31.767Z,8.31
2019-04-12T12:26:33.155Z,8.27
2019-04-12T12:27:34.563Z,8.13
2019-04-12T12:28:35.961Z,8.09
2019-04-12T12:29:42.794Z,7.96
2019-04-12T12:30:38.698Z,7.99
2019-04-12T12:31:40.096Z,7.84
2019-04-12T12:32:41.496Z,7.66
2019-04-12T12:33:42.899Z,7.54
2019-04-12T12:34:47.137Z,7.42
2019-04-12T12:35:45.634Z,7.19
2019-04-12T12:36:47.030Z,7.09
2019-04-12T12:37:48.430Z,7.14
2019-04-12T12:38:49.843Z,6.99
2019-04-12T12:39:52.945Z,6.82
2019-04-12T12:40:52.663Z,6.69
2019-04-12T12:41:54.036Z,6.60
2019-04-12T12:42:55.441Z,6.42
2019-04-12T12:43:56.838Z,6.43
2019-04-12T12:44:58.240Z,6.55
2019-04-12T12:45:59.640Z,6.42
2019-04-12T12:47:01.087Z,6.27
2019-04-12T12:48:02.481Z,6.36
2019-04-12T12:49:03.941Z,6.33
2019-04-12T12:50:05.341Z,6.30
2019-04-12T12:51:06.764Z,6.28
2019-04-12T12:52:08.160Z,6.28
2019-04-12T12:53:09.587Z,6.28
2019-04-12T12:54:11.047Z,6.36
2019-04-12T12:55:12.433Z,6.35
2019-04-12T12:56:13.828Z,6.33
2019-04-12T12:57:15.237Z,6.46
2019-04-12T12:58:16.735Z,6.55
2019-04-12T12:59:18.151Z,6.53
2019-04-12T13:00:19.537Z,6.54
2019-04-12T13:01:20.949Z,6.69
2019-04-12T13:02:22.431Z,6.69
2019-04-12T13:03:23.862Z,6.75
2019-04-12T13:04:25.229Z,6.78
2019-04-12T13:05:26.617Z,6.93
2019-04-12T13:06:28.058Z,7.09
2019-04-12T13:07:29.475Z,7.08
2019-04-12T13:08:30.881Z,7.23
2019-04-12T13:09:32.268Z,7.26
2019-04-12T13:10:33.749Z,7.32
2019-04-12T13:11:35.139Z,7.41
2019-04-12T13:12:36.534Z,7.48
2019-04-12T13:13:37.950Z,7.66
2019-04-12T13:14:39.351Z,7.76
2019-04-12T13:15:40.739Z,7.91
2019-04-12T13:16:42.132Z,7.96
2019-04-12T13:17:43.515Z,8.04
2019-04-12T13:18:44.903Z,8.00
2019-04-12T13:19:46.296Z,7.95
2019-04-12T13:20:47.691Z,8.02
2019-04-12T13:21:49.083Z,8.14
2019-04-12T13:22:50.475Z,8.12
2019-04-12T13:23:51.869Z,8.13
2019-04-12T13:24:53.265Z,8.29
2019-04-12T13:25:54.673Z,8.27
2019-04-12T13:26:56.074Z,8.22
2019-04-12T13:27:57.476Z,8.27
2019-04-12T13:28:58.852Z,8.22
2019-04-12T13:30:06.725Z,8.25
2019-04-12T13:31:01.602Z,8.20
2019-04-12T13:32:02.987Z,8.03
2019-04-12T13:33:04.386Z,7.82